Time;durP1;ratioP1;P1;durP2;ratioP2;P2;SDS_P1;SDS_P2;PMS_P1;PMS_P2;Temp;Humidity;BMP_temperature;BMP_pressure;BME280_temperature;BME280_humidity;BME280_pressure;Samples;Min_cycle;Max_cycle;Signal;HPM_P1;HPM_P2
2023/06/18 00:00:57;;;;;;;9.52;7.20;;;25.10;99.90;;;;;;4993290;28;20368;-74
2023/06/18 00:03:23;;;;;;;8.00;7.15;;;25.10;99.90;;;;;;5009247;28;20030;-74
2023/06/18 00:05:49;;;;;;;7.90;7.10;;;25.10;99.90;;;;;;4994038;28;20022;-73
2023/06/18 00:08:16;;;;;;;7.65;6.95;;;25.00;99.90;;;;;;4993113;28;20130;-74
2023/06/18 00:10:42;;;;;;;7.30;6.45;;;25.00;99.90;;;;;;4993562;28;20034;-73
2023/06/18 00:13:08;;;;;;;7.32;6.72;;;25.10;99.90;;;;;;4994185;28;20034;-73
2023/06/18 00:15:34;;;;;;;7.30;6.70;;;25.10;99.90;;;;;;5008344;28;20480;-73
2023/06/18 00:18:00;;;;;;;7.90;7.20;;;25.20;99.90;;;;;;4992716;28;20050;-74
2023/06/18 00:20:27;;;;;;;7.93;7.22;;;25.20;99.90;;;;;;5009004;28;20034;-74
2023/06/18 00:22:53;;;;;;;8.27;7.45;;;25.30;99.90;;;;;;4992131;28;20026;-74
2023/06/18 00:25:19;;;;;;;8.05;7.25;;;25.20;99.90;;;;;;4992182;28;20022;-73
2023/06/18 00:27:46;;;;;;;7.97;7.18;;;25.20;99.90;;;;;;5008542;28;20045;-73
2023/06/18 00:30:13;;;;;;;7.55;6.75;;;25.20;99.90;;;;;;4993023;28;20042;-73
2023/06/18 00:32:44;;;;;;;7.68;6.97;;;24.80;99.90;;;;;;4993617;28;20038;-73
2023/06/18 00:35:11;;;;;;;9.00;6.75;;;24.60;99.90;;;;;;4993359;28;20026;-72
2023/06/18 00:37:39;;;;;;;7.20;6.60;;;24.50;99.90;;;;;;4993303;28;20057;-73
2023/06/18 00:40:06;;;;;;;7.70;6.85;;;24.30;99.90;;;;;;4993579;28;20035;-73
2023/06/18 00:42:32;;;;;;;7.03;6.40;;;24.30;99.90;;;;;;4993160;28;20464;-73
2023/06/18 00:44:58;;;;;;;7.40;6.75;;;24.20;99.90;;;;;;4993270;28;20034;-73
2023/06/18 00:47:26;;;;;;;8.35;6.85;;;24.20;99.90;;;;;;4992481;28;20387;-73
2023/06/18 00:49:55;;;;;;;9.07;6.93;;;24.30;99.90;;;;;;4992058;28;20049;-73
2023/06/18 00:52:23;;;;;;;7.32;6.63;;;24.30;99.90;;;;;;4993080;28;20050;-73
2023/06/18 00:54:50;;;;;;;8.20;6.80;;;24.20;99.90;;;;;;5008175;28;20050;-73
2023/06/18 00:57:20;;;;;;;7.28;6.65;;;24.20;99.90;;;;;;5007884;28;20037;-73
2023/06/18 00:59:50;;;;;;;7.88;6.85;;;24.20;99.90;;;;;;4991983;28;20031;-74
2023/06/18 01:02:23;;;;;;;9.80;6.63;;;24.30;99.90;;;;;;4992445;28;20037;-73
2023/06/18 01:04:53;;;;;;;7.03;6.43;;;24.40;99.90;;;;;;4991767;28;20038;-73
2023/06/18 01:07:20;;;;;;;7.38;6.68;;;24.40;99.90;;;;;;5007166;28;20411;-73
2023/06/18 01:09:53;;;;;;;7.63;6.53;;;24.30;99.90;;;;;;5008286;28;20118;-73
2023/06/18 01:12:20;;;;;;;7.60;6.28;;;24.00;99.90;;;;;;4992871;28;20030;-73
2023/06/18 01:14:50;;;;;;;7.30;6.13;;;24.10;99.90;;;;;;5008039;28;20026;-73
2023/06/18 01:17:20;;;;;;;7.05;6.25;;;24.10;99.90;;;;;;5006821;28;20035;-73
2023/06/18 01:20:00;;;;;;;7.20;6.47;;;24.10;99.90;;;;;;5008187;28;20034;-76
2023/06/18 01:22:37;;;;;;;10.00;6.90;;;24.10;99.90;;;;;;5007554;28;20038;-76
2023/06/18 01:25:05;;;;;;;7.63;6.75;;;24.10;99.90;;;;;;5006922;28;20122;-76
2023/06/18 01:27:33;;;;;;;6.95;6.30;;;24.10;99.90;;;;;;4992414;28;20042;-73
2023/06/18 01:30:00;;;;;;;6.55;5.90;;;24.20;99.90;;;;;;5007618;28;20039;-73
2023/06/18 01:32:27;;;;;;;7.43;6.72;;;23.90;99.90;;;;;;5007290;28;20061;-73
2023/06/18 01:34:56;;;;;;;7.13;6.43;;;23.80;99.90;;;;;;4991745;28;20049;-73
2023/06/18 01:37:56;;;;;;;7.57;6.40;;;23.60;99.90;;;;;;4992423;28;20034;-73
2023/06/18 01:40:26;;;;;;;6.45;5.78;;;23.80;99.90;;;;;;4992528;28;20027;-73
2023/06/18 01:43:03;;;;;;;8.23;6.78;;;23.80;99.90;;;;;;5007557;28;20030;-73
2023/06/18 01:45:33;;;;;;;7.22;6.53;;;23.60;99.90;;;;;;4994636;28;20046;-73
2023/06/18 01:48:04;;;;;;;6.82;6.20;;;23.60;99.90;;;;;;5010880;28;20030;-73
2023/06/18 01:50:32;;;;;;;7.00;6.30;;;23.70;99.90;;;;;;5011231;28;20504;-73
2023/06/18 01:52:58;;;;;;;6.70;6.10;;;23.60;99.90;;;;;;5013933;28;20037;-73
2023/06/18 01:55:25;;;;;;;7.22;6.20;;;23.50;99.90;;;;;;5014834;28;20495;-73
2023/06/18 01:57:51;;;;;;;8.45;6.78;;;23.30;99.90;;;;;;5014588;28;20049;-72
2023/06/18 02:00:18;;;;;;;7.85;6.70;;;23.40;99.90;;;;;;5013846;28;20026;-73
2023/06/18 02:02:44;;;;;;;8.43;6.68;;;23.50;99.90;;;;;;5008775;28;20400;-74
2023/06/18 02:05:10;;;;;;;6.85;6.13;;;23.70;99.90;;;;;;5034165;28;20036;-72
2023/06/18 02:07:36;;;;;;;9.07;7.10;;;23.60;99.90;;;;;;5013303;28;20044;-73
2023/06/18 02:10:02;;;;;;;7.95;6.93;;;23.40;99.90;;;;;;5013486;28;20073;-73
2023/06/18 02:12:28;;;;;;;7.55;6.47;;;23.50;99.90;;;;;;5013941;28;20033;-73
2023/06/18 02:14:54;;;;;;;7.18;6.47;;;23.70;99.90;;;;;;5014607;28;20068;-73
2023/06/18 02:17:20;;;;;;;7.45;6.57;;;23.60;99.90;;;;;;5013800;28;20045;-73
2023/06/18 02:19:47;;;;;;;8.15;7.32;;;23.50;99.90;;;;;;5014527;28;20420;-73
2023/06/18 02:22:13;;;;;;;7.80;7.07;;;23.40;99.90;;;;;;5014284;28;20030;-73
2023/06/18 02:24:39;;;;;;;7.72;6.93;;;23.60;99.90;;;;;;5014332;28;20554;-73
2023/06/18 02:27:05;;;;;;;7.68;6.97;;;23.70;99.90;;;;;;5045704;28;20442;-73
2023/06/18 02:29:31;;;;;;;7.60;6.32;;;23.90;99.90;;;;;;5014299;28;20045;-73
2023/06/18 02:31:57;;;;;;;8.55;7.15;;;23.80;99.90;;;;;;5038909;28;20534;-73
2023/06/18 02:34:27;;;;;;;9.38;7.28;;;23.50;99.90;;;;;;5014460;28;20026;-73
2023/06/18 02:36:56;;;;;;;7.75;7.00;;;23.60;99.90;;;;;;5000317;28;20022;-73
2023/06/18 02:39:22;;;;;;;7.45;6.38;;;23.60;99.90;;;;;;4995716;28;20039;-73
2023/06/18 02:41:48;;;;;;;8.32;6.22;;;23.60;99.90;;;;;;5010646;28;20039;-73
2023/06/18 02:44:15;;;;;;;7.35;6.50;;;23.20;99.90;;;;;;5010992;28;20411;-73
2023/06/18 02:46:41;;;;;;;6.93;6.22;;;22.90;99.90;;;;;;5008355;28;20041;-73
2023/06/18 02:49:07;;;;;;;8.23;6.43;;;22.70;99.90;;;;;;5013946;28;20395;-73
2023/06/18 02:51:33;;;;;;;7.47;6.78;;;22.90;99.90;;;;;;5014918;28;20030;-73
2023/06/18 02:53:59;;;;;;;7.35;6.63;;;23.20;99.90;;;;;;5015204;28;20370;-73
2023/06/18 02:56:28;;;;;;;7.10;6.50;;;23.40;99.90;;;;;;5014646;28;20066;-73
2023/06/18 02:58:58;;;;;;;6.80;6.10;;;23.40;99.90;;;;;;5015241;28;20030;-73
2023/06/18 03:01:24;;;;;;;7.10;6.40;;;23.00;99.90;;;;;;5013118;28;20037;-73
2023/06/18 03:03:51;;;;;;;7.43;6.63;;;22.90;99.90;;;;;;5012549;28;20030;-73
2023/06/18 03:06:17;;;;;;;7.13;6.43;;;23.00;99.90;;;;;;5014977;28;20443;-73
2023/06/18 03:08:43;;;;;;;7.32;6.63;;;23.20;99.90;;;;;;5014425;28;20041;-73
2023/06/18 03:11:09;;;;;;;7.63;6.82;;;23.30;99.90;;;;;;5013301;28;20033;-72
2023/06/18 03:13:35;;;;;;;7.95;6.70;;;23.50;99.90;;;;;;5014801;28;20041;-73
2023/06/18 03:16:01;;;;;;;7.28;6.57;;;23.40;99.90;;;;;;5012747;28;20029;-73
2023/06/18 03:18:28;;;;;;;8.68;6.70;;;23.20;99.90;;;;;;5013726;28;20521;-74
2023/06/18 03:20:54;;;;;;;7.65;6.95;;;23.00;99.90;;;;;;5014265;28;20041;-73
2023/06/18 03:23:20;;;;;;;7.72;6.82;;;22.90;99.90;;;;;;5014349;28;20030;-73
2023/06/18 03:25:46;;;;;;;7.97;6.45;;;23.00;99.90;;;;;;5013135;28;20037;-73
2023/06/18 03:28:12;;;;;;;6.88;6.28;;;23.10;99.90;;;;;;5014886;28;20046;-73
2023/06/18 03:30:38;;;;;;;8.38;6.20;;;23.20;99.90;;;;;;5013706;28;20135;-73
2023/06/18 03:33:05;;;;;;;6.90;6.07;;;23.10;99.90;;;;;;5014373;28;20033;-73
2023/06/18 03:35:32;;;;;;;7.38;6.47;;;23.00;99.90;;;;;;5014031;28;20403;-73
2023/06/18 03:37:58;;;;;;;7.93;7.10;;;22.90;99.90;;;;;;5013835;28;20493;-73
2023/06/18 03:40:24;;;;;;;7.30;6.60;;;22.90;99.90;;;;;;5014101;28;20045;-73
2023/06/18 03:42:50;;;;;;;7.22;6.55;;;23.10;99.90;;;;;;5014212;28;20578;-74
2023/06/18 03:45:17;;;;;;;7.38;6.68;;;23.20;99.90;;;;;;4996348;28;20038;-73
2023/06/18 03:47:43;;;;;;;7.47;6.88;;;23.00;99.90;;;;;;5013788;28;20018;-72
2023/06/18 03:50:09;;;;;;;8.23;7.40;;;22.80;99.90;;;;;;5045976;28;20053;-73
2023/06/18 03:52:35;;;;;;;8.18;7.10;;;23.00;99.90;;;;;;5045007;28;20053;-73
2023/06/18 03:55:02;;;;;;;9.60;6.72;;;23.10;99.90;;;;;;5029486;28;20022;-73
2023/06/18 03:57:30;;;;;;;8.32;6.70;;;23.20;99.90;;;;;;5028691;28;20049;-73
2023/06/18 03:59:56;;;;;;;7.72;7.03;;;23.00;99.90;;;;;;5012668;28;20042;-73
2023/06/18 04:02:22;;;;;;;7.50;6.80;;;22.90;99.90;;;;;;5013194;28;20034;-73
2023/06/18 04:04:48;;;;;;;7.72;6.93;;;22.90;99.90;;;;;;5013796;28;20037;-73
2023/06/18 04:07:14;;;;;;;9.68;6.93;;;22.70;99.90;;;;;;5011898;28;20030;-73
2023/06/18 04:09:41;;;;;;;7.60;6.80;;;22.60;99.90;;;;;;5013845;28;20479;-73
2023/06/18 04:12:07;;;;;;;7.30;6.60;;;22.70;99.90;;;;;;5013452;28;20034;-74
2023/06/18 04:14:36;;;;;;;8.15;7.32;;;22.80;99.90;;;;;;5011520;28;20044;-72
2023/06/18 04:17:03;;;;;;;9.07;6.43;;;22.80;99.90;;;;;;5012983;28;20057;-73
2023/06/18 04:19:29;;;;;;;8.43;7.05;;;22.90;99.90;;;;;;5013527;28;20078;-73
2023/06/18 04:21:55;;;;;;;8.48;6.50;;;23.00;99.90;;;;;;5012808;28;20037;-73
2023/06/18 04:24:21;;;;;;;8.63;6.88;;;22.90;99.90;;;;;;5013483;28;20030;-73
2023/06/18 04:26:47;;;;;;;7.85;7.13;;;22.70;99.90;;;;;;5013112;28;20041;-73
2023/06/18 04:29:15;;;;;;;7.35;6.65;;;22.60;99.90;;;;;;5013314;28;20046;-73
2023/06/18 04:31:41;;;;;;;8.98;8.07;;;22.30;99.90;;;;;;5012735;28;20034;-73
2023/06/18 04:34:07;;;;;;;9.38;7.63;;;22.20;99.90;;;;;;5013286;28;20034;-73
2023/06/18 04:36:34;;;;;;;8.80;8.00;;;22.10;99.90;;;;;;5012688;28;20030;-73
2023/06/18 04:39:00;;;;;;;8.75;7.97;;;22.00;99.90;;;;;;5013749;28;20052;-73
2023/06/18 04:41:26;;;;;;;9.20;8.30;;;22.10;99.90;;;;;;5028161;28;20506;-73
2023/06/18 04:43:52;;;;;;;9.10;8.10;;;22.30;99.90;;;;;;5013153;28;20033;-72
2023/06/18 04:46:18;;;;;;;8.30;7.38;;;22.50;99.90;;;;;;5012674;28;20033;-73
2023/06/18 04:48:44;;;;;;;10.35;9.20;;;22.70;99.90;;;;;;5012839;28;20060;-73
2023/06/18 04:51:11;;;;;;;8.88;8.05;;;22.80;99.90;;;;;;5012375;28;20049;-73
2023/06/18 04:53:37;;;;;;;9.02;7.47;;;22.90;99.90;;;;;;5011778;28;20041;-73
2023/06/18 04:56:04;;;;;;;7.90;7.20;;;22.70;99.90;;;;;;5012638;28;20050;-73
2023/06/18 04:58:34;;;;;;;7.95;7.25;;;22.70;99.90;;;;;;5011728;28;20022;-72
2023/06/18 05:01:01;;;;;;;8.23;7.50;;;22.60;99.90;;;;;;5012209;28;20030;-73
2023/06/18 05:03:27;;;;;;;10.82;7.85;;;22.70;99.90;;;;;;5012848;28;20029;-73
2023/06/18 05:05:53;;;;;;;9.13;7.55;;;22.60;99.90;;;;;;5012125;28;20041;-76
2023/06/18 05:08:19;;;;;;;8.05;7.25;;;22.70;99.90;;;;;;5011532;28;20025;-76
2023/06/18 05:10:46;;;;;;;8.85;7.40;;;22.60;99.90;;;;;;5011232;28;20491;-73
2023/06/18 05:13:12;;;;;;;9.70;7.50;;;22.70;99.90;;;;;;5012615;28;20387;-72
2023/06/18 05:15:38;;;;;;;8.40;7.57;;;22.70;99.90;;;;;;5010990;28;20499;-73
2023/06/18 05:18:04;;;;;;;8.65;7.30;;;22.70;99.90;;;;;;5012686;28;20030;-73
2023/06/18 05:20:30;;;;;;;8.98;7.75;;;22.90;99.90;;;;;;5012059;28;20546;-73
2023/06/18 05:22:56;;;;;;;10.70;7.97;;;22.80;99.90;;;;;;5012557;28;20030;-73
2023/06/18 05:25:22;;;;;;;8.02;7.32;;;22.80;99.90;;;;;;5012402;28;20026;-73
2023/06/18 05:27:48;;;;;;;10.05;7.47;;;22.90;99.90;;;;;;5011812;28;20026;-73
2023/06/18 05:30:15;;;;;;;9.23;6.78;;;23.00;99.90;;;;;;5011782;28;20038;-73
2023/06/18 05:32:41;;;;;;;8.10;7.30;;;23.10;99.90;;;;;;5012765;28;20038;-73
2023/06/18 05:35:07;;;;;;;8.35;7.53;;;23.00;99.90;;;;;;5012268;28;20026;-73
2023/06/18 05:37:33;;;;;;;8.40;7.38;;;23.00;99.90;;;;;;5027362;28;20037;-73
2023/06/18 05:40:00;;;;;;;7.82;7.10;;;23.20;99.90;;;;;;5012471;28;20033;-73
2023/06/18 05:42:26;;;;;;;8.23;7.45;;;23.30;99.90;;;;;;5012330;28;20037;-75
2023/06/18 05:44:54;;;;;;;8.38;7.57;;;23.40;99.90;;;;;;5012199;28;20037;-75
2023/06/18 05:47:20;;;;;;;8.57;7.68;;;23.50;99.90;;;;;;5011479;28;20030;-75
2023/06/18 05:49:46;;;;;;;12.13;7.78;;;23.60;99.90;;;;;;5011950;28;20054;-76
2023/06/18 05:52:12;;;;;;;8.57;7.78;;;23.60;99.90;;;;;;5012047;28;20357;-75
2023/06/18 05:54:39;;;;;;;10.73;8.27;;;23.60;99.90;;;;;;5012228;28;20053;-75
2023/06/18 05:57:05;;;;;;;9.23;8.35;;;23.60;99.90;;;;;;5012110;28;20383;-75
2023/06/18 05:59:31;;;;;;;9.63;8.73;;;23.70;99.90;;;;;;5012320;28;20034;-75
2023/06/18 06:01:57;;;;;;;9.90;8.90;;;23.70;99.90;;;;;;5011277;28;20034;-75
2023/06/18 06:04:23;;;;;;;10.15;9.15;;;23.70;99.90;;;;;;5010874;28;20026;-75
2023/06/18 06:06:50;;;;;;;9.57;8.68;;;23.80;99.90;;;;;;5010742;28;20390;-75
2023/06/18 06:09:16;;;;;;;9.73;8.82;;;23.80;99.90;;;;;;5011028;28;20038;-75
2023/06/18 06:11:42;;;;;;;10.20;9.18;;;23.80;99.90;;;;;;5010957;28;20045;-75
2023/06/18 06:14:08;;;;;;;11.80;9.55;;;23.60;99.90;;;;;;5010871;28;20037;-74
2023/06/18 06:16:34;;;;;;;10.70;8.93;;;23.20;99.90;;;;;;5010137;28;20037;-75
2023/06/18 06:19:00;;;;;;;10.93;9.82;;;23.00;99.90;;;;;;5012004;28;20038;-75
2023/06/18 06:21:26;;;;;;;9.60;8.80;;;22.90;99.90;;;;;;5011643;28;20040;-75
2023/06/18 06:23:52;;;;;;;11.40;9.10;;;22.90;99.90;;;;;;5010376;28;20038;-73
2023/06/18 06:26:19;;;;;;;13.10;9.57;;;22.90;99.90;;;;;;5011886;28;20367;-73
2023/06/18 06:28:45;;;;;;;11.55;10.45;;;22.80;99.90;;;;;;5011982;28;20026;-73
2023/06/18 06:31:11;;;;;;;10.75;9.65;;;22.80;99.90;;;;;;5026430;28;20061;-72
2023/06/18 06:33:37;;;;;;;11.65;9.38;;;23.00;99.90;;;;;;5011550;28;20041;-73
2023/06/18 06:36:03;;;;;;;11.77;10.18;;;23.00;99.90;;;;;;5011638;28;20387;-73
2023/06/18 06:38:29;;;;;;;12.50;11.20;;;23.10;99.90;;;;;;5013859;28;20022;-72
2023/06/18 06:40:55;;;;;;;11.45;10.38;;;22.90;99.90;;;;;;5015075;28;20038;-75
2023/06/18 06:43:21;;;;;;;12.98;10.82;;;23.20;99.90;;;;;;5015608;28;20081;-75
2023/06/18 06:45:47;;;;;;;12.20;11.00;;;23.40;99.90;;;;;;5014687;28;20049;-75
2023/06/18 06:48:13;;;;;;;12.32;10.82;;;23.50;99.90;;;;;;5009236;28;20379;-76
2023/06/18 06:50:39;;;;;;;14.27;11.30;;;23.60;99.90;;;;;;5011969;28;20045;-76
2023/06/18 06:53:06;;;;;;;12.35;11.10;;;23.40;99.90;;;;;;5015177;28;20030;-75
2023/06/18 06:55:32;;;;;;;12.48;11.27;;;23.30;99.90;;;;;;5013816;28;20037;-75
2023/06/18 06:57:59;;;;;;;12.70;11.48;;;23.20;99.90;;;;;;5013622;28;20045;-75
2023/06/18 07:00:25;;;;;;;12.55;10.63;;;23.30;99.90;;;;;;5013702;28;20029;-75
2023/06/18 07:02:51;;;;;;;12.52;11.23;;;23.40;99.90;;;;;;5029861;28;20040;-75
2023/06/18 07:05:17;;;;;;;11.75;10.65;;;23.40;99.90;;;;;;5030181;28;20472;-75
2023/06/18 07:07:43;;;;;;;12.68;11.50;;;23.60;99.90;;;;;;5014742;28;20041;-75
2023/06/18 07:10:10;;;;;;;12.98;11.30;;;23.60;99.90;;;;;;5014627;28;20514;-75
2023/06/18 07:12:36;;;;;;;14.63;11.50;;;23.80;99.90;;;;;;4994346;28;20493;-74
2023/06/18 07:15:02;;;;;;;12.48;11.35;;;23.90;99.90;;;;;;4994685;28;20030;-74
2023/06/18 07:17:29;;;;;;;13.15;11.75;;;24.10;99.90;;;;;;5013328;28;20057;-75
2023/06/18 07:19:55;;;;;;;13.80;12.50;;;24.20;99.90;;;;;;5014800;28;20680;-74
2023/06/18 07:22:21;;;;;;;13.23;12.02;;;24.20;99.90;;;;;;5014410;28;20034;-75
2023/06/18 07:24:47;;;;;;;14.27;12.77;;;24.30;99.90;;;;;;5014576;28;20033;-75
2023/06/18 07:27:14;;;;;;;12.90;11.60;;;24.30;99.90;;;;;;5014137;28;20034;-74
2023/06/18 07:29:40;;;;;;;13.40;12.02;;;24.40;99.90;;;;;;5014504;28;20041;-74
2023/06/18 07:32:07;;;;;;;13.13;11.88;;;24.50;99.90;;;;;;5045460;28;20030;-75
2023/06/18 07:34:33;;;;;;;13.32;12.13;;;24.60;99.90;;;;;;5014345;28;20360;-76
2023/06/18 07:36:59;;;;;;;14.80;13.15;;;24.60;99.90;;;;;;5045880;28;20041;-75
2023/06/18 07:39:26;;;;;;;12.93;11.70;;;24.80;99.90;;;;;;5014171;28;20032;-75
2023/06/18 07:41:52;;;;;;;12.75;11.55;;;24.90;99.90;;;;;;5045730;28;20383;-75
2023/06/18 07:44:18;;;;;;;14.68;13.27;;;25.10;99.90;;;;;;5013989;28;20030;-75
2023/06/18 07:46:44;;;;;;;13.55;12.35;;;25.00;99.90;;;;;;5045485;28;20466;-76
2023/06/18 07:49:10;;;;;;;13.05;11.85;;;25.00;99.90;;;;;;5013301;28;20410;-73
2023/06/18 07:51:37;;;;;;;14.13;12.52;;;25.20;99.90;;;;;;5012592;28;20399;-73
2023/06/18 07:54:03;;;;;;;13.52;12.23;;;25.30;99.90;;;;;;5013061;28;20483;-73
2023/06/18 07:56:29;;;;;;;13.00;11.90;;;25.30;99.90;;;;;;5029111;28;20042;-73
2023/06/18 07:58:55;;;;;;;12.73;11.23;;;25.30;99.90;;;;;;5013491;28;20090;-73
2023/06/18 08:01:21;;;;;;;14.55;12.13;;;25.40;99.90;;;;;;5011818;28;20042;-73
2023/06/18 08:03:47;;;;;;;13.30;12.02;;;25.60;99.90;;;;;;5029165;28;20025;-73
2023/06/18 08:06:14;;;;;;;14.52;12.20;;;25.80;99.90;;;;;;5013617;28;20038;-73
2023/06/18 08:08:40;;;;;;;13.23;11.93;;;25.90;99.90;;;;;;5013691;28;20029;-73
2023/06/18 08:11:06;;;;;;;13.93;12.63;;;26.00;99.90;;;;;;5013429;28;20045;-73
2023/06/18 08:13:32;;;;;;;13.30;12.00;;;26.00;99.90;;;;;;5012167;28;20061;-73
2023/06/18 08:15:59;;;;;;;13.95;12.55;;;26.00;99.90;;;;;;5028182;28;20034;-73
2023/06/18 08:18:26;;;;;;;13.45;12.13;;;26.10;99.90;;;;;;5028614;28;20025;-73
2023/06/18 08:20:52;;;;;;;13.15;11.77;;;26.10;99.90;;;;;;5028525;28;20057;-73
2023/06/18 08:23:18;;;;;;;12.63;11.50;;;26.00;99.90;;;;;;5013421;28;20021;-73
2023/06/18 08:25:44;;;;;;;13.13;11.82;;;26.00;99.90;;;;;;5013501;28;20034;-73
2023/06/18 08:28:10;;;;;;;13.35;12.18;;;26.00;99.90;;;;;;5012922;28;20026;-73
2023/06/18 08:30:36;;;;;;;12.68;11.57;;;25.80;99.90;;;;;;5012636;28;20065;-73
2023/06/18 08:33:02;;;;;;;12.73;11.52;;;25.80;99.90;;;;;;5013262;28;20030;-73
2023/06/18 08:35:28;;;;;;;13.30;12.10;;;25.80;99.90;;;;;;5013014;28;20026;-73
2023/06/18 08:37:54;;;;;;;13.32;12.13;;;25.80;99.90;;;;;;5013244;28;20033;-73
2023/06/18 08:40:23;;;;;;;12.50;11.50;;;25.90;99.90;;;;;;5012968;28;20387;-73
2023/06/18 08:42:49;;;;;;;12.95;11.65;;;25.90;99.90;;;;;;5027853;28;20398;-73
2023/06/18 08:45:15;;;;;;;12.73;11.63;;;25.90;99.90;;;;;;5027753;28;20030;-73
2023/06/18 08:47:41;;;;;;;12.25;11.02;;;25.90;99.90;;;;;;5014585;28;20048;-74
2023/06/18 08:50:08;;;;;;;12.63;11.57;;;25.90;99.90;;;;;;4995318;28;20591;-73
2023/06/18 08:52:34;;;;;;;13.85;12.65;;;25.90;99.90;;;;;;5011673;28;20033;-73
2023/06/18 08:55:06;;;;;;;12.68;11.43;;;26.00;99.90;;;;;;5028230;28;20033;-73
2023/06/18 08:57:52;;;;;;;13.52;12.18;;;26.00;99.90;;;;;;5026603;28;20546;-73
2023/06/18 09:00:18;;;;;;;13.20;12.00;;;26.10;99.90;;;;;;5010928;28;20030;-73
2023/06/18 09:02:45;;;;;;;13.60;12.30;;;26.10;99.90;;;;;;5027973;28;20424;-73
2023/06/18 09:05:11;;;;;;;12.27;11.27;;;26.10;99.90;;;;;;5011064;28;20052;-73
2023/06/18 09:07:37;;;;;;;13.70;12.27;;;26.10;99.90;;;;;;5027965;28;20030;-75
2023/06/18 09:10:04;;;;;;;14.25;12.80;;;26.10;99.90;;;;;;5028028;28;20399;-73
2023/06/18 09:12:30;;;;;;;14.65;13.25;;;26.10;99.90;;;;;;5012009;28;20042;-72
2023/06/18 09:14:56;;;;;;;14.70;13.23;;;26.10;99.90;;;;;;5012787;28;20033;-73
2023/06/18 09:17:22;;;;;;;14.55;12.98;;;26.10;99.90;;;;;;5011709;28;20038;-75
2023/06/18 09:19:48;;;;;;;13.80;12.52;;;26.00;99.90;;;;;;5027595;28;20060;-73
2023/06/18 09:22:16;;;;;;;14.77;13.50;;;25.90;99.90;;;;;;5027323;28;20730;-73
2023/06/18 09:24:43;;;;;;;15.82;14.45;;;25.90;99.90;;;;;;5027683;28;20379;-73
2023/06/18 09:27:09;;;;;;;14.02;12.75;;;25.90;99.90;;;;;;5011948;28;20030;-73
2023/06/18 09:29:40;;;;;;;14.60;13.25;;;25.90;99.90;;;;;;5027801;28;20026;-73
2023/06/18 09:32:11;;;;;;;14.52;13.00;;;26.00;99.90;;;;;;5026797;28;20042;-73
2023/06/18 09:34:38;;;;;;;;;;;26.10;99.90;;;;;;5028270;28;20352;-73
2023/06/18 09:37:05;;;;;;;17.98;16.05;;;26.20;99.90;;;;;;5027337;28;19917;-73
2023/06/18 09:39:32;;;;;;;18.15;16.33;;;26.20;99.90;;;;;;5027757;28;20038;-73
2023/06/18 09:42:06;;;;;;;17.58;15.52;;;26.10;99.90;;;;;;5027094;28;20030;-73
2023/06/18 09:44:33;;;;;;;17.73;16.23;;;26.00;99.90;;;;;;5012257;28;20097;-73
2023/06/18 09:46:59;;;;;;;20.92;17.40;;;25.90;99.90;;;;;;5026900;28;20042;-73
2023/06/18 09:49:26;;;;;;;18.58;16.67;;;25.90;99.90;;;;;;5011026;28;20514;-73
2023/06/18 09:51:52;;;;;;;20.17;17.15;;;25.90;99.90;;;;;;5011910;28;20046;-73
2023/06/18 09:54:19;;;;;;;19.15;17.33;;;25.80;99.90;;;;;;5027476;28;20033;-73
2023/06/18 09:57:02;;;;;;;21.90;18.00;;;25.80;99.90;;;;;;5026610;28;20053;-73
2023/06/18 09:59:28;;;;;;;19.77;17.75;;;25.60;99.90;;;;;;5024118;28;20471;-73
2023/06/18 10:01:55;;;;;;;22.00;19.73;;;25.60;99.90;;;;;;5021025;28;20407;-73
2023/06/18 10:04:21;;;;;;;20.23;18.33;;;25.60;99.90;;;;;;5044015;28;20033;-73
2023/06/18 10:06:53;;;;;;;20.05;18.08;;;25.60;99.90;;;;;;5043668;28;20030;-73
2023/06/18 10:09:20;;;;;;;20.05;17.98;;;25.60;99.90;;;;;;5043908;28;20018;-73
2023/06/18 10:11:48;;;;;;;19.85;18.05;;;25.60;99.90;;;;;;5027135;28;20479;-73
2023/06/18 10:14:16;;;;;;;20.02;18.20;;;25.70;99.90;;;;;;5046622;28;20093;-73
2023/06/18 10:16:50;;;;;;;20.23;18.25;;;25.70;99.90;;;;;;5046522;28;20042;-73
2023/06/18 10:19:42;;;;;;;19.42;17.63;;;25.50;99.90;;;;;;5015988;28;20033;-73
2023/06/18 10:22:08;;;;;;;18.70;16.90;;;25.50;99.90;;;;;;5020189;28;20423;-73
2023/06/18 10:24:59;;;;;;;19.10;17.20;;;25.70;99.90;;;;;;5030698;28;20034;-74
2023/06/18 10:27:25;;;;;;;20.35;18.45;;;25.80;99.90;;;;;;5030768;28;20022;-74
2023/06/18 10:29:51;;;;;;;20.45;18.73;;;26.00;99.90;;;;;;5030865;28;20061;-73
2023/06/18 10:32:17;;;;;;;21.05;17.80;;;25.90;99.90;;;;;;5029567;28;20030;-73
2023/06/18 10:34:43;;;;;;;18.45;16.73;;;25.90;99.90;;;;;;5030839;28;20026;-73
2023/06/18 10:37:09;;;;;;;16.67;15.05;;;26.10;99.90;;;;;;5030403;28;20479;-73
2023/06/18 10:39:35;;;;;;;20.17;18.25;;;26.20;99.90;;;;;;5030386;28;20042;-73
2023/06/18 10:42:12;;;;;;;20.45;18.42;;;26.40;99.90;;;;;;5015237;28;20037;-73
2023/06/18 10:44:47;;;;;;;20.90;19.10;;;26.30;99.90;;;;;;5015371;28;20029;-73
2023/06/18 10:47:21;;;;;;;21.02;19.13;;;26.10;99.90;;;;;;5014437;28;20045;-73
2023/06/18 10:50:00;;;;;;;18.17;16.60;;;26.10;99.90;;;;;;5015195;28;20516;-73
2023/06/18 10:52:27;;;;;;;20.35;18.42;;;26.00;99.90;;;;;;5014917;28;20048;-73
2023/06/18 10:55:05;;;;;;;21.38;19.27;;;26.00;99.90;;;;;;5029363;28;20398;-73
2023/06/18 10:57:31;;;;;;;21.35;19.48;;;25.80;99.90;;;;;;5029962;28;20037;-74
2023/06/18 10:59:57;;;;;;;23.38;20.75;;;25.90;99.90;;;;;;5014050;28;20045;-73
2023/06/18 11:02:37;;;;;;;22.08;19.73;;;25.70;99.90;;;;;;5014404;28;20061;-73
2023/06/18 11:05:03;;;;;;;21.85;19.75;;;25.60;99.90;;;;;;5029901;28;20021;-73
2023/06/18 11:07:30;;;;;;;21.73;19.67;;;25.60;99.90;;;;;;5014448;28;20034;-73
2023/06/18 11:10:01;;;;;;;24.17;21.77;;;25.60;99.90;;;;;;5029928;28;20041;-72
2023/06/18 11:12:28;;;;;;;24.95;22.63;;;25.60;99.90;;;;;;5013545;28;20482;-73
2023/06/18 11:15:13;;;;;;;23.08;20.88;;;25.50;99.90;;;;;;5014674;28;20033;-73
2023/06/18 11:17:40;;;;;;;22.10;19.90;;;25.50;99.90;;;;;;5012757;28;20387;-74
2023/06/18 11:20:07;;;;;;;22.02;20.23;;;25.40;99.90;;;;;;5014655;28;20037;-73
2023/06/18 11:22:33;;;;;;;27.23;25.05;;;25.30;99.90;;;;;;5029382;28;20475;-73
2023/06/18 11:25:00;;;;;;;28.08;25.77;;;25.20;99.90;;;;;;5012334;28;20034;-73
2023/06/18 11:27:27;;;;;;;23.30;20.92;;;25.00;99.90;;;;;;5029526;28;20053;-72
2023/06/18 11:29:57;;;;;;;22.40;20.30;;;24.80;99.90;;;;;;5029792;28;20049;-72
2023/06/18 11:32:24;;;;;;;22.52;20.35;;;24.70;99.90;;;;;;5028946;28;20057;-72
2023/06/18 11:34:51;;;;;;;21.70;18.05;;;24.40;99.90;;;;;;5029712;28;20033;-73
2023/06/18 11:37:17;;;;;;;56.95;51.80;;;24.00;99.90;;;;;;4980348;28;20046;-75
2023/06/18 11:39:43;;;;;;;54.25;49.78;;;23.50;99.90;;;;;;4958059;28;20034;-75
2023/06/18 11:42:22;;;;;;;19.70;15.38;;;23.10;99.90;;;;;;5006131;28;20034;-72
2023/06/18 11:45:02;;;;;;;16.92;15.43;;;22.80;99.90;;;;;;5028303;28;20022;-73
2023/06/18 11:47:29;;;;;;;13.30;11.25;;;22.70;99.90;;;;;;5022633;28;20399;-72
2023/06/18 11:49:55;;;;;;;12.70;10.88;;;22.70;99.90;;;;;;4994712;28;20046;-72
2023/06/18 11:52:23;;;;;;;13.15;9.68;;;22.60;99.90;;;;;;5011760;28;20486;-73
2023/06/18 11:54:49;;;;;;;13.35;11.13;;;22.20;99.90;;;;;;5012609;28;20045;-73
2023/06/18 11:57:17;;;;;;;12.82;10.60;;;22.00;99.90;;;;;;5013354;28;20038;-72
2023/06/18 11:59:43;;;;;;;14.05;11.50;;;21.90;99.90;;;;;;5012884;28;20485;-72
2023/06/18 12:02:17;;;;;;;12.98;11.68;;;21.90;99.90;;;;;;4996766;28;20042;-73
2023/06/18 12:04:44;;;;;;;14.25;11.07;;;22.00;99.90;;;;;;5008654;28;20042;-72
2023/06/18 12:07:23;;;;;;;11.80;10.55;;;22.10;99.90;;;;;;4993905;28;20423;-72
2023/06/18 12:09:51;;;;;;;12.95;11.30;;;22.20;99.90;;;;;;4994377;28;20034;-72
2023/06/18 12:12:34;;;;;;;13.73;10.52;;;22.30;99.90;;;;;;5008738;28;20034;-73
2023/06/18 12:15:04;;;;;;;14.65;10.63;;;22.30;99.90;;;;;;5009344;28;20044;-73
2023/06/18 12:17:57;;;;;;;11.63;9.97;;;22.40;99.90;;;;;;5027785;28;20038;-72
2023/06/18 12:20:30;;;;;;;11.10;9.93;;;22.40;99.90;;;;;;5011847;28;20034;-73
2023/06/18 12:22:56;;;;;;;11.45;10.23;;;22.40;99.90;;;;;;5013506;28;20026;-73
2023/06/18 12:25:23;;;;;;;12.60;10.05;;;22.40;99.90;;;;;;5028433;28;20056;-72
2023/06/18 12:27:50;;;;;;;10.93;9.63;;;22.40;99.90;;;;;;5028763;28;20029;-73
2023/06/18 12:30:16;;;;;;;11.75;10.55;;;22.30;99.90;;;;;;5011523;28;20460;-73
2023/06/18 12:32:43;;;;;;;12.57;11.05;;;22.20;99.90;;;;;;5013505;28;20038;-72
2023/06/18 12:35:14;;;;;;;12.00;10.35;;;22.30;99.90;;;;;;5027627;28;20038;-73
2023/06/18 12:37:42;;;;;;;12.35;10.07;;;22.20;99.90;;;;;;5009371;28;20042;-73
2023/06/18 12:40:16;;;;;;;11.65;9.48;;;22.20;99.90;;;;;;5008678;28;20387;-72